sensor_id;sensor_type;location;lat;lon;timestamp;temperature;humidity
2497;DHT22;1259;48.306;14.374;2023-04-09T00:00:36;4.20;99.90
2497;DHT22;1259;48.306;14.374;2023-04-09T00:03:03;4.30;99.90
2497;DHT22;1259;48.306;14.374;2023-04-09T00:05:30;4.30;99.90
2497;DHT22;1259;48.306;14.374;2023-04-09T00:07:56;4.20;99.90
2497;DHT22;1259;48.306;14.374;2023-04-09T00:10:23;4.00;99.90
2497;DHT22;1259;48.306;14.374;2023-04-09T00:12:50;4.00;99.90
2497;DHT22;1259;48.306;14.374;2023-04-09T00:15:16;3.90;99.90
2497;DHT22;1259;48.306;14.374;2023-04-09T00:17:44;3.90;99.90
2497;DHT22;1259;48.306;14.374;2023-04-09T00:20:11;3.90;99.90
2497;DHT22;1259;48.306;14.374;2023-04-09T00:22:38;3.90;99.90
2497;DHT22;1259;48.306;14.374;2023-04-09T00:25:05;4.00;99.90
2497;DHT22;1259;48.306;14.374;2023-04-09T00:27:32;4.00;99.90
2497;DHT22;1259;48.306;14.374;2023-04-09T00:29:58;4.00;99.90
2497;DHT22;1259;48.306;14.374;2023-04-09T00:32:25;4.00;99.90
2497;DHT22;1259;48.306;14.374;2023-04-09T00:34:53;4.00;99.90
2497;DHT22;1259;48.306;14.374;2023-04-09T00:37:20;4.00;99.90
2497;DHT22;1259;48.306;14.374;2023-04-09T00:39:46;3.90;99.90
2497;DHT22;1259;48.306;14.374;2023-04-09T00:42:13;3.90;99.90
2497;DHT22;1259;48.306;14.374;2023-04-09T00:44:40;3.80;99.90
2497;DHT22;1259;48.306;14.374;2023-04-09T00:47:07;3.70;99.90
2497;DHT22;1259;48.306;14.374;2023-04-09T00:49:34;3.70;99.90
2497;DHT22;1259;48.306;14.374;2023-04-09T00:52:02;3.70;99.90
2497;DHT22;1259;48.306;14.374;2023-04-09T00:54:28;3.70;99.90
2497;DHT22;1259;48.306;14.374;2023-04-09T00:56:55;3.70;99.90
2497;DHT22;1259;48.306;14.374;2023-04-09T00:59:23;3.70;99.90
2497;DHT22;1259;48.306;14.374;2023-04-09T01:01:50;3.70;99.90
2497;DHT22;1259;48.306;14.374;2023-04-09T01:04:17;3.70;99.90
2497;DHT22;1259;48.306;14.374;2023-04-09T01:06:44;3.70;99.90
2497;DHT22;1259;48.306;14.374;2023-04-09T01:09:17;3.60;99.90
2497;DHT22;1259;48.306;14.374;2023-04-09T01:11:49;3.60;99.90
2497;DHT22;1259;48.306;14.374;2023-04-09T01:14:19;3.80;99.90
2497;DHT22;1259;48.306;14.374;2023-04-09T01:16:49;3.80;99.90
2497;DHT22;1259;48.306;14.374;2023-04-09T01:19:20;3.70;99.90
2497;DHT22;1259;48.306;14.374;2023-04-09T01:21:49;3.70;99.90
2497;DHT22;1259;48.306;14.374;2023-04-09T01:24:20;3.80;99.90
2497;DHT22;1259;48.306;14.374;2023-04-09T01:26:55;3.70;99.90
2497;DHT22;1259;48.306;14.374;2023-04-09T01:29:25;3.70;99.90
2497;DHT22;1259;48.306;14.374;2023-04-09T01:31:54;3.70;99.90
2497;DHT22;1259;48.306;14.374;2023-04-09T01:34:21;3.70;99.90
2497;DHT22;1259;48.306;14.374;2023-04-09T01:36:49;3.70;99.90
2497;DHT22;1259;48.306;14.374;2023-04-09T01:39:17;3.60;99.90
2497;DHT22;1259;48.306;14.374;2023-04-09T01:41:44;3.70;99.90
2497;DHT22;1259;48.306;14.374;2023-04-09T01:44:11;3.60;99.90
2497;DHT22;1259;48.306;14.374;2023-04-09T01:46:40;3.60;99.90
2497;DHT22;1259;48.306;14.374;2023-04-09T01:49:08;3.60;99.90
2497;DHT22;1259;48.306;14.374;2023-04-09T01:51:34;3.60;99.90
2497;DHT22;1259;48.306;14.374;2023-04-09T01:54:01;3.60;99.90
2497;DHT22;1259;48.306;14.374;2023-04-09T01:56:38;3.50;99.90
2497;DHT22;1259;48.306;14.374;2023-04-09T01:59:04;3.50;99.90
2497;DHT22;1259;48.306;14.374;2023-04-09T02:01:32;3.50;99.90
2497;DHT22;1259;48.306;14.374;2023-04-09T02:04:01;3.40;99.90
2497;DHT22;1259;48.306;14.374;2023-04-09T02:06:30;3.50;99.90
2497;DHT22;1259;48.306;14.374;2023-04-09T02:08:59;3.50;99.90
2497;DHT22;1259;48.306;14.374;2023-04-09T02:11:26;3.40;99.90
2497;DHT22;1259;48.306;14.374;2023-04-09T02:13:54;3.50;99.90
2497;DHT22;1259;48.306;14.374;2023-04-09T02:16:21;3.50;99.90
2497;DHT22;1259;48.306;14.374;2023-04-09T02:18:51;3.50;99.90
2497;DHT22;1259;48.306;14.374;2023-04-09T02:21:20;3.50;99.90
2497;DHT22;1259;48.306;14.374;2023-04-09T02:23:47;3.50;99.90
2497;DHT22;1259;48.306;14.374;2023-04-09T02:26:14;3.50;99.90
2497;DHT22;1259;48.306;14.374;2023-04-09T02:28:40;3.50;99.90
2497;DHT22;1259;48.306;14.374;2023-04-09T02:31:07;3.50;99.90
2497;DHT22;1259;48.306;14.374;2023-04-09T02:33:34;3.50;99.90
2497;DHT22;1259;48.306;14.374;2023-04-09T02:36:00;3.60;99.90
2497;DHT22;1259;48.306;14.374;2023-04-09T02:38:28;3.50;99.90
2497;DHT22;1259;48.306;14.374;2023-04-09T02:40:55;3.60;99.90
2497;DHT22;1259;48.306;14.374;2023-04-09T02:43:22;3.60;99.90
2497;DHT22;1259;48.306;14.374;2023-04-09T02:45:48;3.60;99.90
2497;DHT22;1259;48.306;14.374;2023-04-09T02:48:15;3.60;99.90
2497;DHT22;1259;48.306;14.374;2023-04-09T02:50:42;3.60;99.90
2497;DHT22;1259;48.306;14.374;2023-04-09T02:53:08;3.60;99.90
2497;DHT22;1259;48.306;14.374;2023-04-09T02:55:36;3.70;99.90
2497;DHT22;1259;48.306;14.374;2023-04-09T02:58:03;3.60;99.90
2497;DHT22;1259;48.306;14.374;2023-04-09T03:00:30;3.60;99.90
2497;DHT22;1259;48.306;14.374;2023-04-09T03:02:57;3.60;99.90
2497;DHT22;1259;48.306;14.374;2023-04-09T03:05:23;3.60;99.90
2497;DHT22;1259;48.306;14.374;2023-04-09T03:07:50;3.60;99.90
2497;DHT22;1259;48.306;14.374;2023-04-09T03:10:17;3.60;99.90
2497;DHT22;1259;48.306;14.374;2023-04-09T03:12:45;3.60;99.90
2497;DHT22;1259;48.306;14.374;2023-04-09T03:15:12;3.60;99.90
2497;DHT22;1259;48.306;14.374;2023-04-09T03:17:38;3.60;99.90
2497;DHT22;1259;48.306;14.374;2023-04-09T03:20:05;3.60;99.90
2497;DHT22;1259;48.306;14.374;2023-04-09T03:22:34;3.60;99.90
2497;DHT22;1259;48.306;14.374;2023-04-09T03:25:01;3.60;99.90
2497;DHT22;1259;48.306;14.374;2023-04-09T03:27:28;3.50;99.90
2497;DHT22;1259;48.306;14.374;2023-04-09T03:29:56;3.60;99.90
2497;DHT22;1259;48.306;14.374;2023-04-09T03:32:23;3.60;99.90
2497;DHT22;1259;48.306;14.374;2023-04-09T03:34:49;3.60;99.90
2497;DHT22;1259;48.306;14.374;2023-04-09T03:37:16;3.60;99.90
2497;DHT22;1259;48.306;14.374;2023-04-09T03:39:43;3.60;99.90
2497;DHT22;1259;48.306;14.374;2023-04-09T03:42:09;3.70;99.90
2497;DHT22;1259;48.306;14.374;2023-04-09T03:44:36;3.70;99.90
2497;DHT22;1259;48.306;14.374;2023-04-09T03:47:04;3.70;99.90
2497;DHT22;1259;48.306;14.374;2023-04-09T03:49:31;3.70;99.90
2497;DHT22;1259;48.306;14.374;2023-04-09T03:52:00;3.60;99.90
2497;DHT22;1259;48.306;14.374;2023-04-09T03:54:27;3.60;99.90
2497;DHT22;1259;48.306;14.374;2023-04-09T03:56:54;3.60;99.90
2497;DHT22;1259;48.306;14.374;2023-04-09T03:59:21;3.60;99.90
2497;DHT22;1259;48.306;14.374;2023-04-09T04:01:48;3.70;99.90
2497;DHT22;1259;48.306;14.374;2023-04-09T04:04:16;3.60;99.90
2497;DHT22;1259;48.306;14.374;2023-04-09T04:06:43;3.60;99.90
2497;DHT22;1259;48.306;14.374;2023-04-09T04:09:09;3.60;99.90
2497;DHT22;1259;48.306;14.374;2023-04-09T04:11:36;3.60;99.90
2497;DHT22;1259;48.306;14.374;2023-04-09T04:14:03;3.70;99.90
2497;DHT22;1259;48.306;14.374;2023-04-09T04:16:29;3.60;99.90
2497;DHT22;1259;48.306;14.374;2023-04-09T04:18:56;3.60;99.90
2497;DHT22;1259;48.306;14.374;2023-04-09T04:21:24;3.60;99.90
2497;DHT22;1259;48.306;14.374;2023-04-09T04:23:51;3.60;99.90
2497;DHT22;1259;48.306;14.374;2023-04-09T04:26:18;3.70;99.90
2497;DHT22;1259;48.306;14.374;2023-04-09T04:28:44;3.70;99.90
2497;DHT22;1259;48.306;14.374;2023-04-09T04:31:11;3.70;99.90
2497;DHT22;1259;48.306;14.374;2023-04-09T04:33:38;3.70;99.90
2497;DHT22;1259;48.306;14.374;2023-04-09T04:36:06;3.80;99.90
2497;DHT22;1259;48.306;14.374;2023-04-09T04:38:34;3.80;99.90
2497;DHT22;1259;48.306;14.374;2023-04-09T04:41:01;3.80;99.90
2497;DHT22;1259;48.306;14.374;2023-04-09T04:43:28;3.90;99.90
2497;DHT22;1259;48.306;14.374;2023-04-09T04:45:54;3.90;99.90
2497;DHT22;1259;48.306;14.374;2023-04-09T04:48:21;3.90;99.90
2497;DHT22;1259;48.306;14.374;2023-04-09T04:50:54;3.90;99.90
2497;DHT22;1259;48.306;14.374;2023-04-09T04:53:21;3.80;99.90
2497;DHT22;1259;48.306;14.374;2023-04-09T04:55:49;3.90;99.90
2497;DHT22;1259;48.306;14.374;2023-04-09T04:58:16;3.90;99.90
2497;DHT22;1259;48.306;14.374;2023-04-09T05:00:43;3.90;99.90
2497;DHT22;1259;48.306;14.374;2023-04-09T05:03:10;3.90;99.90
2497;DHT22;1259;48.306;14.374;2023-04-09T05:05:36;3.90;99.90
2497;DHT22;1259;48.306;14.374;2023-04-09T05:08:03;4.00;99.90
2497;DHT22;1259;48.306;14.374;2023-04-09T05:10:30;4.00;99.90
2497;DHT22;1259;48.306;14.374;2023-04-09T05:12:58;4.00;99.90
2497;DHT22;1259;48.306;14.374;2023-04-09T05:15:25;4.00;99.90
2497;DHT22;1259;48.306;14.374;2023-04-09T05:17:51;4.00;99.90
2497;DHT22;1259;48.306;14.374;2023-04-09T05:20:18;4.10;99.90
2497;DHT22;1259;48.306;14.374;2023-04-09T05:22:45;4.20;99.90
2497;DHT22;1259;48.306;14.374;2023-04-09T05:25:11;4.10;99.90
2497;DHT22;1259;48.306;14.374;2023-04-09T05:27:40;4.10;99.90
2497;DHT22;1259;48.306;14.374;2023-04-09T05:30:08;4.20;99.90
2497;DHT22;1259;48.306;14.374;2023-04-09T05:32:38;4.10;99.90
2497;DHT22;1259;48.306;14.374;2023-04-09T05:35:05;4.10;99.90
2497;DHT22;1259;48.306;14.374;2023-04-09T05:37:32;4.10;99.90
2497;DHT22;1259;48.306;14.374;2023-04-09T05:39:59;4.10;99.90
2497;DHT22;1259;48.306;14.374;2023-04-09T05:42:25;4.10;99.90
2497;DHT22;1259;48.306;14.374;2023-04-09T05:44:52;4.20;99.90
2497;DHT22;1259;48.306;14.374;2023-04-09T05:47:20;4.20;99.90
2497;DHT22;1259;48.306;14.374;2023-04-09T05:49:47;4.30;99.90
2497;DHT22;1259;48.306;14.374;2023-04-09T05:52:13;4.30;99.90
2497;DHT22;1259;48.306;14.374;2023-04-09T05:54:40;4.30;99.90
2497;DHT22;1259;48.306;14.374;2023-04-09T05:57:07;4.30;99.90
2497;DHT22;1259;48.306;14.374;2023-04-09T05:59:33;4.30;99.90
2497;DHT22;1259;48.306;14.374;2023-04-09T06:02:00;4.30;99.90
2497;DHT22;1259;48.306;14.374;2023-04-09T06:04:28;4.30;99.90
2497;DHT22;1259;48.306;14.374;2023-04-09T06:06:56;4.30;99.90
2497;DHT22;1259;48.306;14.374;2023-04-09T06:09:24;4.30;99.90
2497;DHT22;1259;48.306;14.374;2023-04-09T06:11:51;4.30;99.90
2497;DHT22;1259;48.306;14.374;2023-04-09T06:14:17;4.40;99.90
2497;DHT22;1259;48.306;14.374;2023-04-09T06:16:44;4.40;99.90
2497;DHT22;1259;48.306;14.374;2023-04-09T06:19:11;4.40;99.90
2497;DHT22;1259;48.306;14.374;2023-04-09T06:21:39;4.30;99.90
2497;DHT22;1259;48.306;14.374;2023-04-09T06:24:06;4.30;99.90
2497;DHT22;1259;48.306;14.374;2023-04-09T06:26:33;4.30;99.90
2497;DHT22;1259;48.306;14.374;2023-04-09T06:29:00;4.30;99.90
2497;DHT22;1259;48.306;14.374;2023-04-09T06:31:26;4.30;99.90
2497;DHT22;1259;48.306;14.374;2023-04-09T06:33:53;4.30;99.90
2497;DHT22;1259;48.306;14.374;2023-04-09T06:36:20;4.40;99.90
2497;DHT22;1259;48.306;14.374;2023-04-09T06:38:48;4.50;99.90
2497;DHT22;1259;48.306;14.374;2023-04-09T06:41:15;4.50;99.90
2497;DHT22;1259;48.306;14.374;2023-04-09T06:43:41;4.50;99.90
2497;DHT22;1259;48.306;14.374;2023-04-09T06:46:08;4.50;99.90
2497;DHT22;1259;48.306;14.374;2023-04-09T06:48:35;4.50;99.90
2497;DHT22;1259;48.306;14.374;2023-04-09T06:51:02;4.50;99.90
2497;DHT22;1259;48.306;14.374;2023-04-09T06:53:29;4.50;99.90
2497;DHT22;1259;48.306;14.374;2023-04-09T06:55:57;4.50;99.90
2497;DHT22;1259;48.306;14.374;2023-04-09T06:58:24;4.50;99.90
2497;DHT22;1259;48.306;14.374;2023-04-09T07:00:50;4.50;99.90
2497;DHT22;1259;48.306;14.374;2023-04-09T07:03:17;4.60;99.90
2497;DHT22;1259;48.306;14.374;2023-04-09T07:05:44;4.60;99.90
2497;DHT22;1259;48.306;14.374;2023-04-09T07:08:11;4.60;99.90
2497;DHT22;1259;48.306;14.374;2023-04-09T07:10:37;4.60;99.90
2497;DHT22;1259;48.306;14.374;2023-04-09T07:13:05;4.60;99.90
2497;DHT22;1259;48.306;14.374;2023-04-09T07:15:32;4.60;99.90
2497;DHT22;1259;48.306;14.374;2023-04-09T07:17:59;4.60;99.90
2497;DHT22;1259;48.306;14.374;2023-04-09T07:20:25;4.60;99.90
2497;DHT22;1259;48.306;14.374;2023-04-09T07:22:52;4.70;99.90
2497;DHT22;1259;48.306;14.374;2023-04-09T07:25:19;4.50;99.90
2497;DHT22;1259;48.306;14.374;2023-04-09T07:27:46;4.40;99.90
2497;DHT22;1259;48.306;14.374;2023-04-09T07:30:15;4.40;99.90
2497;DHT22;1259;48.306;14.374;2023-04-09T07:32:42;4.50;99.90
2497;DHT22;1259;48.306;14.374;2023-04-09T07:35:08;4.50;99.90
2497;DHT22;1259;48.306;14.374;2023-04-09T07:37:35;4.60;99.90
2497;DHT22;1259;48.306;14.374;2023-04-09T07:40:02;4.40;99.90
2497;DHT22;1259;48.306;14.374;2023-04-09T07:42:29;4.40;99.90
2497;DHT22;1259;48.306;14.374;2023-04-09T07:44:56;4.30;99.90
2497;DHT22;1259;48.306;14.374;2023-04-09T07:47:24;4.30;99.90
2497;DHT22;1259;48.306;14.374;2023-04-09T07:49:51;4.40;99.90
2497;DHT22;1259;48.306;14.374;2023-04-09T07:52:17;4.50;99.90
2497;DHT22;1259;48.306;14.374;2023-04-09T07:54:47;4.40;99.90
2497;DHT22;1259;48.306;14.374;2023-04-09T07:57:13;4.20;99.90
2497;DHT22;1259;48.306;14.374;2023-04-09T07:59:40;4.20;99.90
2497;DHT22;1259;48.306;14.374;2023-04-09T08:02:07;4.30;99.90
2497;DHT22;1259;48.306;14.374;2023-04-09T08:04:35;4.40;99.90
2497;DHT22;1259;48.306;14.374;2023-04-09T08:07:02;4.50;99.90
2497;DHT22;1259;48.306;14.374;2023-04-09T08:09:29;4.50;99.90
2497;DHT22;1259;48.306;14.374;2023-04-09T08:11:55;4.40;99.90
2497;DHT22;1259;48.306;14.374;2023-04-09T08:14:22;4.40;99.90
2497;DHT22;1259;48.306;14.374;2023-04-09T08:16:50;4.40;99.90
2497;DHT22;1259;48.306;14.374;2023-04-09T08:19:16;4.30;99.90
2497;DHT22;1259;48.306;14.374;2023-04-09T08:21:45;4.30;99.90
2497;DHT22;1259;48.306;14.374;2023-04-09T08:24:13;4.30;99.90
2497;DHT22;1259;48.306;14.374;2023-04-09T08:26:40;4.20;99.90
2497;DHT22;1259;48.306;14.374;2023-04-09T08:29:07;4.10;99.90
2497;DHT22;1259;48.306;14.374;2023-04-09T08:31:34;4.30;99.90
2497;DHT22;1259;48.306;14.374;2023-04-09T08:34:01;4.40;99.90
2497;DHT22;1259;48.306;14.374;2023-04-09T08:36:28;4.40;99.90
2497;DHT22;1259;48.306;14.374;2023-04-09T08:38:58;4.50;99.90
2497;DHT22;1259;48.306;14.374;2023-04-09T08:41:25;4.30;99.90
2497;DHT22;1259;48.306;14.374;2023-04-09T08:43:52;4.40;99.90
2497;DHT22;1259;48.306;14.374;2023-04-09T08:46:20;4.40;99.90
2497;DHT22;1259;48.306;14.374;2023-04-09T08:48:47;4.40;99.90
2497;DHT22;1259;48.306;14.374;2023-04-09T08:51:14;4.30;99.90
2497;DHT22;1259;48.306;14.374;2023-04-09T08:53:41;4.30;99.90
2497;DHT22;1259;48.306;14.374;2023-04-09T08:56:10;4.30;99.90
2497;DHT22;1259;48.306;14.374;2023-04-09T08:58:39;4.20;99.90
2497;DHT22;1259;48.306;14.374;2023-04-09T09:01:16;4.30;99.90
2497;DHT22;1259;48.306;14.374;2023-04-09T09:03:51;4.30;99.90
2497;DHT22;1259;48.306;14.374;2023-04-09T09:06:19;4.20;99.90
2497;DHT22;1259;48.306;14.374;2023-04-09T09:08:51;4.30;99.90
2497;DHT22;1259;48.306;14.374;2023-04-09T09:11:26;4.20;99.90
2497;DHT22;1259;48.306;14.374;2023-04-09T09:13:57;4.30;99.90
2497;DHT22;1259;48.306;14.374;2023-04-09T09:16:24;4.30;99.90
2497;DHT22;1259;48.306;14.374;2023-04-09T09:18:51;4.40;99.90
2497;DHT22;1259;48.306;14.374;2023-04-09T09:21:20;4.30;99.90
2497;DHT22;1259;48.306;14.374;2023-04-09T09:23:47;4.30;99.90
2497;DHT22;1259;48.306;14.374;2023-04-09T09:26:15;4.40;99.90
2497;DHT22;1259;48.306;14.374;2023-04-09T09:28:45;4.50;99.90
2497;DHT22;1259;48.306;14.374;2023-04-09T09:31:13;4.80;99.90
2497;DHT22;1259;48.306;14.374;2023-04-09T09:33:40;5.00;99.90
2497;DHT22;1259;48.306;14.374;2023-04-09T09:36:07;5.10;99.90
2497;DHT22;1259;48.306;14.374;2023-04-09T09:38:39;5.00;99.90
2497;DHT22;1259;48.306;14.374;2023-04-09T09:41:16;5.10;99.90
2497;DHT22;1259;48.306;14.374;2023-04-09T09:43:45;5.10;99.90
2497;DHT22;1259;48.306;14.374;2023-04-09T09:46:11;5.00;99.90
2497;DHT22;1259;48.306;14.374;2023-04-09T09:48:38;5.00;99.90
2497;DHT22;1259;48.306;14.374;2023-04-09T09:51:07;5.30;99.90
2497;DHT22;1259;48.306;14.374;2023-04-09T09:53:34;5.10;99.90
2497;DHT22;1259;48.306;14.374;2023-04-09T09:56:02;5.00;99.90
2497;DHT22;1259;48.306;14.374;2023-04-09T09:58:31;5.30;99.90
2497;DHT22;1259;48.306;14.374;2023-04-09T10:00:59;5.30;99.90
2497;DHT22;1259;48.306;14.374;2023-04-09T10:03:28;5.50;99.90
2497;DHT22;1259;48.306;14.374;2023-04-09T10:05:56;5.60;99.90
2497;DHT22;1259;48.306;14.374;2023-04-09T10:08:23;5.70;99.90
2497;DHT22;1259;48.306;14.374;2023-04-09T10:10:51;5.80;99.90
2497;DHT22;1259;48.306;14.374;2023-04-09T10:13:18;5.90;99.90
2497;DHT22;1259;48.306;14.374;2023-04-09T10:15:47;5.90;99.90
2497;DHT22;1259;48.306;14.374;2023-04-09T10:18:15;6.00;99.90
2497;DHT22;1259;48.306;14.374;2023-04-09T10:20:45;6.20;99.90
2497;DHT22;1259;48.306;14.374;2023-04-09T10:23:14;6.20;99.90
2497;DHT22;1259;48.306;14.374;2023-04-09T10:25:44;6.30;99.90
2497;DHT22;1259;48.306;14.374;2023-04-09T10:28:13;6.40;99.90
2497;DHT22;1259;48.306;14.374;2023-04-09T10:30:40;6.50;99.90
2497;DHT22;1259;48.306;14.374;2023-04-09T10:33:08;6.60;99.90
2497;DHT22;1259;48.306;14.374;2023-04-09T10:35:37;6.70;99.90
2497;DHT22;1259;48.306;14.374;2023-04-09T10:38:05;6.70;99.90
2497;DHT22;1259;48.306;14.374;2023-04-09T10:40:32;6.70;99.90
2497;DHT22;1259;48.306;14.374;2023-04-09T10:42:59;6.80;99.90
2497;DHT22;1259;48.306;14.374;2023-04-09T10:45:28;6.90;99.90
2497;DHT22;1259;48.306;14.374;2023-04-09T10:48:04;7.00;99.90
2497;DHT22;1259;48.306;14.374;2023-04-09T10:50:31;7.20;99.90
2497;DHT22;1259;48.306;14.374;2023-04-09T10:53:01;7.20;99.90
2497;DHT22;1259;48.306;14.374;2023-04-09T10:55:29;7.30;99.90
2497;DHT22;1259;48.306;14.374;2023-04-09T10:57:56;7.50;99.90
2497;DHT22;1259;48.306;14.374;2023-04-09T11:00:23;7.50;99.90
2497;DHT22;1259;48.306;14.374;2023-04-09T11:03:09;7.60;99.90
2497;DHT22;1259;48.306;14.374;2023-04-09T11:05:36;7.50;99.90
2497;DHT22;1259;48.306;14.374;2023-04-09T11:08:07;7.50;99.90
2497;DHT22;1259;48.306;14.374;2023-04-09T11:10:35;7.50;99.90
2497;DHT22;1259;48.306;14.374;2023-04-09T11:13:04;7.50;99.90
2497;DHT22;1259;48.306;14.374;2023-04-09T11:15:32;7.50;99.90
2497;DHT22;1259;48.306;14.374;2023-04-09T11:17:59;7.50;99.90
2497;DHT22;1259;48.306;14.374;2023-04-09T11:20:27;7.60;99.90
2497;DHT22;1259;48.306;14.374;2023-04-09T11:22:55;7.60;99.90
2497;DHT22;1259;48.306;14.374;2023-04-09T11:25:23;7.60;99.90
2497;DHT22;1259;48.306;14.374;2023-04-09T11:27:50;7.50;99.90
2497;DHT22;1259;48.306;14.374;2023-04-09T11:30:17;7.60;99.90
2497;DHT22;1259;48.306;14.374;2023-04-09T11:32:44;7.60;99.90
2497;DHT22;1259;48.306;14.374;2023-04-09T11:35:11;7.60;99.90
2497;DHT22;1259;48.306;14.374;2023-04-09T11:37:39;7.60;99.90
2497;DHT22;1259;48.306;14.374;2023-04-09T11:40:06;7.50;99.90
2497;DHT22;1259;48.306;14.374;2023-04-09T11:42:34;7.50;99.90
2497;DHT22;1259;48.306;14.374;2023-04-09T11:45:02;7.40;99.90
2497;DHT22;1259;48.306;14.374;2023-04-09T11:47:29;7.30;99.90
2497;DHT22;1259;48.306;14.374;2023-04-09T11:49:56;7.20;99.90
2497;DHT22;1259;48.306;14.374;2023-04-09T11:52:23;7.10;99.90
2497;DHT22;1259;48.306;14.374;2023-04-09T11:54:52;7.10;99.90
2497;DHT22;1259;48.306;14.374;2023-04-09T11:57:18;7.00;99.90
2497;DHT22;1259;48.306;14.374;2023-04-09T11:59:47;7.00;99.90
2497;DHT22;1259;48.306;14.374;2023-04-09T12:02:16;7.00;99.90
2497;DHT22;1259;48.306;14.374;2023-04-09T12:04:47;6.90;99.90
2497;DHT22;1259;48.306;14.374;2023-04-09T12:07:14;6.80;99.90
2497;DHT22;1259;48.306;14.374;2023-04-09T12:09:47;6.80;99.90
2497;DHT22;1259;48.306;14.374;2023-04-09T12:12:17;6.70;99.90
2497;DHT22;1259;48.306;14.374;2023-04-09T12:14:44;6.70;99.90
2497;DHT22;1259;48.306;14.374;2023-04-09T12:17:12;6.70;99.90
2497;DHT22;1259;48.306;14.374;2023-04-09T12:19:39;6.60;99.90
2497;DHT22;1259;48.306;14.374;2023-04-09T12:22:05;6.60;99.90
2497;DHT22;1259;48.306;14.374;2023-04-09T12:24:32;6.60;99.90
2497;DHT22;1259;48.306;14.374;2023-04-09T12:26:59;6.50;99.90
2497;DHT22;1259;48.306;14.374;2023-04-09T12:29:25;6.60;99.90
2497;DHT22;1259;48.306;14.374;2023-04-09T12:31:54;6.60;99.90
2497;DHT22;1259;48.306;14.374;2023-04-09T12:34:22;6.70;99.90
2497;DHT22;1259;48.306;14.374;2023-04-09T12:36:48;6.80;99.90
2497;DHT22;1259;48.306;14.374;2023-04-09T12:39:15;6.90;99.90
2497;DHT22;1259;48.306;14.374;2023-04-09T12:41:44;7.00;99.90
2497;DHT22;1259;48.306;14.374;2023-04-09T12:44:11;7.00;99.90
2497;DHT22;1259;48.306;14.374;2023-04-09T12:46:37;6.80;99.90
2497;DHT22;1259;48.306;14.374;2023-04-09T12:49:04;6.80;99.90
2497;DHT22;1259;48.306;14.374;2023-04-09T12:51:32;6.90;99.90
2497;DHT22;1259;48.306;14.374;2023-04-09T12:53:59;7.00;99.90
2497;DHT22;1259;48.306;14.374;2023-04-09T12:56:28;6.60;99.90
2497;DHT22;1259;48.306;14.374;2023-04-09T12:58:55;6.80;99.90
2497;DHT22;1259;48.306;14.374;2023-04-09T13:01:21;6.90;99.90
2497;DHT22;1259;48.306;14.374;2023-04-09T13:03:48;7.00;99.90
2497;DHT22;1259;48.306;14.374;2023-04-09T13:06:15;6.80;99.90
2497;DHT22;1259;48.306;14.374;2023-04-09T13:08:43;6.80;99.90
2497;DHT22;1259;48.306;14.374;2023-04-09T13:11:10;6.90;99.90
2497;DHT22;1259;48.306;14.374;2023-04-09T13:13:36;7.00;99.90
2497;DHT22;1259;48.306;14.374;2023-04-09T13:16:03;7.20;99.90
2497;DHT22;1259;48.306;14.374;2023-04-09T13:18:30;7.00;99.90
2497;DHT22;1259;48.306;14.374;2023-04-09T13:20:57;6.80;99.90
2497;DHT22;1259;48.306;14.374;2023-04-09T13:23:24;7.00;99.90
2497;DHT22;1259;48.306;14.374;2023-04-09T13:25:52;6.90;99.90
2497;DHT22;1259;48.306;14.374;2023-04-09T13:28:19;7.20;99.90
2497;DHT22;1259;48.306;14.374;2023-04-09T13:30:46;7.30;99.90
2497;DHT22;1259;48.306;14.374;2023-04-09T13:33:13;7.20;99.90
2497;DHT22;1259;48.306;14.374;2023-04-09T13:35:39;6.80;99.90
2497;DHT22;1259;48.306;14.374;2023-04-09T13:38:06;6.60;99.90
2497;DHT22;1259;48.306;14.374;2023-04-09T13:40:33;6.70;99.90
2497;DHT22;1259;48.306;14.374;2023-04-09T13:43:01;7.10;99.90
2497;DHT22;1259;48.306;14.374;2023-04-09T13:45:27;7.30;99.90
2497;DHT22;1259;48.306;14.374;2023-04-09T13:47:54;7.60;99.90
2497;DHT22;1259;48.306;14.374;2023-04-09T13:50:21;7.70;99.90
2497;DHT22;1259;48.306;14.374;2023-04-09T13:52:48;7.70;99.90
2497;DHT22;1259;48.306;14.374;2023-04-09T13:55:14;7.70;99.90
2497;DHT22;1259;48.306;14.374;2023-04-09T13:57:41;7.70;99.90
2497;DHT22;1259;48.306;14.374;2023-04-09T14:00:10;7.70;99.90
2497;DHT22;1259;48.306;14.374;2023-04-09T14:02:36;7.80;99.90
2497;DHT22;1259;48.306;14.374;2023-04-09T14:05:04;7.90;99.90
2497;DHT22;1259;48.306;14.374;2023-04-09T14:07:30;7.80;99.90
2497;DHT22;1259;48.306;14.374;2023-04-09T14:09:57;7.80;99.90
2497;DHT22;1259;48.306;14.374;2023-04-09T14:12:24;7.80;99.90
2497;DHT22;1259;48.306;14.374;2023-04-09T14:14:50;7.70;99.90
2497;DHT22;1259;48.306;14.374;2023-04-09T14:17:19;7.70;99.90
2497;DHT22;1259;48.306;14.374;2023-04-09T14:19:45;7.70;99.90
2497;DHT22;1259;48.306;14.374;2023-04-09T14:22:12;7.60;99.90
2497;DHT22;1259;48.306;14.374;2023-04-09T14:24:39;7.70;99.90
2497;DHT22;1259;48.306;14.374;2023-04-09T14:27:06;7.80;99.90
2497;DHT22;1259;48.306;14.374;2023-04-09T14:29:33;7.90;99.90
2497;DHT22;1259;48.306;14.374;2023-04-09T14:31:59;8.00;99.90
2497;DHT22;1259;48.306;14.374;2023-04-09T14:34:28;8.10;99.90
2497;DHT22;1259;48.306;14.374;2023-04-09T14:36:55;8.20;99.90
2497;DHT22;1259;48.306;14.374;2023-04-09T14:39:22;8.20;99.90
2497;DHT22;1259;48.306;14.374;2023-04-09T14:41:49;8.20;99.90
2497;DHT22;1259;48.306;14.374;2023-04-09T14:44:15;8.30;99.90
2497;DHT22;1259;48.306;14.374;2023-04-09T14:46:42;8.30;99.90
2497;DHT22;1259;48.306;14.374;2023-04-09T14:49:09;8.30;99.90
2497;DHT22;1259;48.306;14.374;2023-04-09T14:51:37;8.20;99.90
2497;DHT22;1259;48.306;14.374;2023-04-09T14:54:03;8.20;99.90
2497;DHT22;1259;48.306;14.374;2023-04-09T14:56:30;8.20;99.90
2497;DHT22;1259;48.306;14.374;2023-04-09T14:58:57;8.20;99.90
2497;DHT22;1259;48.306;14.374;2023-04-09T15:01:24;8.10;99.90
2497;DHT22;1259;48.306;14.374;2023-04-09T15:03:51;8.10;99.90
2497;DHT22;1259;48.306;14.374;2023-04-09T15:06:18;7.80;99.90
2497;DHT22;1259;48.306;14.374;2023-04-09T15:08:46;7.50;99.90
2497;DHT22;1259;48.306;14.374;2023-04-09T15:11:13;7.60;99.90
2497;DHT22;1259;48.306;14.374;2023-04-09T15:13:40;7.60;99.90
2497;DHT22;1259;48.306;14.374;2023-04-09T15:16:07;7.70;99.90
2497;DHT22;1259;48.306;14.374;2023-04-09T15:18:33;7.30;99.90
2497;DHT22;1259;48.306;14.374;2023-04-09T15:21:00;7.20;99.90
2497;DHT22;1259;48.306;14.374;2023-04-09T15:23:27;7.10;99.90
2497;DHT22;1259;48.306;14.374;2023-04-09T15:25:55;7.20;99.90
2497;DHT22;1259;48.306;14.374;2023-04-09T15:28:21;7.40;99.90
2497;DHT22;1259;48.306;14.374;2023-04-09T15:30:48;7.20;99.90
2497;DHT22;1259;48.306;14.374;2023-04-09T15:33:15;7.00;99.90
2497;DHT22;1259;48.306;14.374;2023-04-09T15:35:42;6.90;99.90
2497;DHT22;1259;48.306;14.374;2023-04-09T15:38:11;6.90;99.90
2497;DHT22;1259;48.306;14.374;2023-04-09T15:40:38;7.00;99.90
2497;DHT22;1259;48.306;14.374;2023-04-09T15:43:07;7.20;99.90
2497;DHT22;1259;48.306;14.374;2023-04-09T15:45:33;7.30;99.90
2497;DHT22;1259;48.306;14.374;2023-04-09T15:48:00;7.50;99.90
2497;DHT22;1259;48.306;14.374;2023-04-09T15:50:27;7.70;99.90
2497;DHT22;1259;48.306;14.374;2023-04-09T15:52:53;7.70;99.90
2497;DHT22;1259;48.306;14.374;2023-04-09T15:55:20;7.70;99.90
2497;DHT22;1259;48.306;14.374;2023-04-09T15:57:47;7.70;99.90
2497;DHT22;1259;48.306;14.374;2023-04-09T16:00:15;7.70;99.90
2497;DHT22;1259;48.306;14.374;2023-04-09T16:02:42;7.50;99.90